Time;durP1;ratioP1;P1;durP2;ratioP2;P2;SDS_P1;SDS_P2;PMS_P1;PMS_P2;Temp;Humidity;BMP_temperature;BMP_pressure;BME280_temperature;BME280_humidity;BME280_pressure;Samples;Min_cycle;Max_cycle;Signal;HPM_P1;HPM_P2
2023/05/16 00:02:10;;;;;;;4.83;1.83;;;11.70;99.90;;;;;;4995655;28;20242;-54
2023/05/16 00:04:38;;;;;;;4.57;1.50;;;11.70;99.90;;;;;;4995937;28;20681;-55
2023/05/16 00:07:06;;;;;;;9.07;2.07;;;11.70;99.90;;;;;;4996282;28;20604;-55
2023/05/16 00:09:34;;;;;;;10.70;2.10;;;11.70;99.90;;;;;;4995733;28;20715;-54
2023/05/16 00:12:03;;;;;;;7.77;1.83;;;11.70;99.90;;;;;;4995542;28;20232;-55
2023/05/16 00:14:34;;;;;;;6.20;2.20;;;11.60;99.90;;;;;;4995646;28;20268;-55
2023/05/16 00:17:03;;;;;;;5.93;1.50;;;11.50;99.90;;;;;;4996192;28;20584;-56
2023/05/16 00:19:32;;;;;;;5.70;1.90;;;11.60;99.90;;;;;;4997552;28;20269;-54
2023/05/16 00:22:00;;;;;;;6.10;2.03;;;11.60;99.90;;;;;;4995968;28;20234;-55
2023/05/16 00:24:28;;;;;;;8.43;1.97;;;11.70;99.90;;;;;;4995602;28;20229;-55
2023/05/16 00:26:56;;;;;;;4.93;1.80;;;11.70;99.90;;;;;;4995886;28;20711;-54
2023/05/16 00:29:25;;;;;;;6.87;1.70;;;11.70;99.90;;;;;;4995555;28;20231;-54
2023/05/16 00:31:54;;;;;;;3.97;1.80;;;11.60;99.90;;;;;;4994886;28;20229;-54
2023/05/16 00:34:23;;;;;;;6.13;1.80;;;11.50;99.90;;;;;;4995295;28;20696;-56
2023/05/16 00:36:52;;;;;;;9.27;2.03;;;11.40;99.90;;;;;;5010536;28;20235;-55
2023/05/16 00:39:20;;;;;;;5.33;1.80;;;11.40;99.90;;;;;;4995409;28;20223;-55
2023/05/16 00:41:49;;;;;;;7.30;2.17;;;11.40;99.90;;;;;;4993889;28;20327;-55
2023/05/16 00:44:17;;;;;;;3.80;1.57;;;11.40;99.90;;;;;;4995364;28;20215;-55
2023/05/16 00:46:45;;;;;;;6.97;2.07;;;11.50;99.90;;;;;;4995181;28;20739;-54
2023/05/16 00:49:15;;;;;;;7.43;2.00;;;11.40;99.90;;;;;;4995590;28;20231;-54
2023/05/16 00:51:43;;;;;;;6.27;2.07;;;11.30;99.90;;;;;;4993328;28;20234;-54
2023/05/16 00:54:12;;;;;;;4.83;1.70;;;11.30;99.90;;;;;;4994955;28;20242;-55
2023/05/16 00:56:40;;;;;;;5.90;1.47;;;11.10;99.90;;;;;;4994914;28;20228;-54
2023/05/16 00:59:10;;;;;;;7.00;1.87;;;11.10;99.90;;;;;;4993867;28;20235;-56
2023/05/16 01:01:45;;;;;;;6.53;2.47;;;11.10;99.90;;;;;;4994437;28;20239;-56
2023/05/16 01:04:22;;;;;;;8.30;2.10;;;11.20;99.90;;;;;;4954028;28;20241;-57
2023/05/16 01:06:50;;;;;;;7.10;1.97;;;11.20;99.90;;;;;;4963594;28;20231;-58
2023/05/16 01:09:19;;;;;;;8.37;2.00;;;11.20;99.90;;;;;;4971015;28;20236;-57
2023/05/16 01:11:51;;;;;;;7.23;1.87;;;11.20;99.90;;;;;;4955925;28;20225;-58
2023/05/16 01:14:38;;;;;;;8.80;2.10;;;11.10;99.90;;;;;;4956033;29;20724;-57
2023/05/16 01:17:11;;;;;;;7.40;1.77;;;11.00;99.90;;;;;;4956085;29;20233;-59
2023/05/16 01:20:10;;;;;;;9.13;2.00;;;10.90;99.90;;;;;;4989784;28;20707;-59
2023/05/16 01:22:52;;;;;;;6.10;1.67;;;10.90;99.90;;;;;;4977891;28;20280;-59
2023/05/16 01:25:32;;;;;;;7.90;1.97;;;10.90;99.90;;;;;;4955788;29;20225;-59
2023/05/16 01:28:02;;;;;;;9.13;1.87;;;10.80;99.90;;;;;;4964903;28;20260;-59
2023/05/16 01:30:34;;;;;;;10.13;2.20;;;10.80;99.90;;;;;;4974570;28;20311;-59
2023/05/16 01:33:02;;;;;;;8.93;2.43;;;10.80;99.90;;;;;;4974455;28;20581;-59
2023/05/16 01:35:31;;;;;;;6.20;1.57;;;10.80;99.90;;;;;;4966713;28;20302;-59
2023/05/16 01:38:11;;;;;;;5.37;2.00;;;10.80;99.90;;;;;;4961378;28;20238;-59
2023/05/16 01:40:51;;;;;;;6.73;1.90;;;10.80;99.90;;;;;;4955515;29;20588;-59
2023/05/16 01:43:29;;;;;;;9.13;2.27;;;10.80;99.90;;;;;;4955550;29;20228;-59
2023/05/16 01:46:02;;;;;;;7.30;2.00;;;10.70;99.90;;;;;;4955550;29;20709;-59
2023/05/16 01:48:36;;;;;;;4.23;1.70;;;10.80;99.90;;;;;;4955341;29;20751;-58
2023/05/16 01:51:04;;;;;;;8.53;2.30;;;10.80;99.90;;;;;;4966085;28;20220;-59
2023/05/16 01:53:38;;;;;;;8.33;2.00;;;10.80;99.90;;;;;;4960438;28;20224;-59
2023/05/16 01:56:10;;;;;;;10.27;2.10;;;10.70;99.90;;;;;;4947772;29;20316;-59
2023/05/16 01:58:41;;;;;;;8.53;2.07;;;10.60;99.90;;;;;;4969966;28;20233;-58
2023/05/16 02:01:12;;;;;;;10.60;2.43;;;10.60;99.90;;;;;;4970805;28;20235;-58
2023/05/16 02:03:40;;;;;;;7.17;1.50;;;10.70;99.90;;;;;;4993993;28;20725;-59
2023/05/16 02:06:09;;;;;;;9.93;2.23;;;10.70;99.90;;;;;;4993825;28;20239;-59
2023/05/16 02:08:37;;;;;;;8.90;2.20;;;10.60;99.90;;;;;;4993781;28;20230;-59
2023/05/16 02:11:05;;;;;;;10.23;2.30;;;10.60;99.90;;;;;;4993915;28;20224;-59
2023/05/16 02:13:33;;;;;;;5.10;1.63;;;10.60;99.90;;;;;;4993684;28;20257;-59
2023/05/16 02:16:05;;;;;;;12.47;2.50;;;10.60;99.90;;;;;;4994052;28;20726;-59
2023/05/16 02:18:33;;;;;;;10.30;2.17;;;10.70;99.90;;;;;;4993554;28;20220;-59
2023/05/16 02:21:01;;;;;;;14.30;2.80;;;10.60;99.90;;;;;;4994402;28;20227;-59
2023/05/16 02:23:30;;;;;;;12.10;2.10;;;10.60;99.90;;;;;;4990447;28;20227;-59
2023/05/16 02:25:58;;;;;;;12.20;2.50;;;10.60;99.90;;;;;;4993472;28;20705;-59
2023/05/16 02:28:26;;;;;;;13.13;2.30;;;10.60;99.90;;;;;;4993441;28;20238;-59
2023/05/16 02:30:57;;;;;;;7.67;2.37;;;10.50;99.90;;;;;;4993370;28;20319;-59
2023/05/16 02:33:28;;;;;;;17.47;3.00;;;10.50;99.90;;;;;;4992923;28;20246;-57
2023/05/16 02:35:56;;;;;;;11.80;2.60;;;10.50;99.90;;;;;;4993303;28;20235;-59
2023/05/16 02:38:26;;;;;;;16.67;2.90;;;10.50;99.90;;;;;;4993341;28;20227;-56
2023/05/16 02:40:56;;;;;;;10.47;2.73;;;10.50;99.90;;;;;;4993433;28;20643;-58
2023/05/16 02:43:24;;;;;;;11.33;2.37;;;10.50;99.90;;;;;;4993399;28;20228;-59
2023/05/16 02:45:53;;;;;;;14.67;2.90;;;10.50;99.90;;;;;;4993603;28;20575;-59
2023/05/16 02:48:21;;;;;;;11.63;3.03;;;10.50;99.90;;;;;;4993397;28;20227;-59
2023/05/16 02:50:50;;;;;;;14.87;2.27;;;10.50;99.90;;;;;;4995931;28;20232;-59
2023/05/16 02:53:19;;;;;;;14.27;3.10;;;10.50;99.90;;;;;;5008255;28;20228;-59
2023/05/16 02:55:47;;;;;;;16.03;2.90;;;10.50;99.90;;;;;;4992955;28;20232;-59
2023/05/16 02:58:15;;;;;;;12.70;3.03;;;10.40;99.90;;;;;;4993345;28;20330;-59
2023/05/16 03:00:43;;;;;;;14.00;2.63;;;10.40;99.90;;;;;;4992679;28;20739;-59
2023/05/16 03:03:11;;;;;;;11.43;2.50;;;10.40;99.90;;;;;;4993491;28;20617;-58
2023/05/16 03:05:41;;;;;;;13.83;2.67;;;10.40;99.90;;;;;;4992965;28;20215;-59
2023/05/16 03:08:10;;;;;;;12.53;3.03;;;10.30;99.90;;;;;;4991901;28;20685;-58
2023/05/16 03:10:38;;;;;;;10.73;2.50;;;10.30;99.90;;;;;;4991732;28;20243;-59
2023/05/16 03:13:06;;;;;;;11.77;2.23;;;10.30;99.90;;;;;;5008292;28;20645;-59
2023/05/16 03:15:35;;;;;;;15.70;2.50;;;10.30;99.90;;;;;;5007889;28;20638;-59
2023/05/16 03:18:03;;;;;;;11.17;2.27;;;10.10;99.90;;;;;;4993193;28;20222;-59
2023/05/16 03:20:31;;;;;;;12.77;2.23;;;10.10;99.90;;;;;;4993645;28;20227;-59
2023/05/16 03:22:59;;;;;;;14.27;2.30;;;10.10;99.90;;;;;;4992561;28;20303;-58
2023/05/16 03:25:29;;;;;;;10.97;1.90;;;10.00;99.90;;;;;;4992560;28;20231;-58
2023/05/16 03:27:57;;;;;;;15.37;2.27;;;10.00;99.90;;;;;;4992997;28;20698;-59
2023/05/16 03:30:25;;;;;;;9.87;2.23;;;9.90;99.90;;;;;;4992417;28;20220;-57
2023/05/16 03:32:53;;;;;;;11.50;2.47;;;9.90;99.90;;;;;;4992898;28;20233;-59
2023/05/16 03:35:21;;;;;;;11.57;2.27;;;9.80;99.90;;;;;;5007732;28;20226;-59
2023/05/16 03:37:49;;;;;;;10.53;2.20;;;9.80;99.90;;;;;;4992123;28;20678;-59
2023/05/16 03:40:18;;;;;;;12.83;2.50;;;9.80;99.90;;;;;;4992710;28;20709;-59
2023/05/16 03:42:48;;;;;;;11.17;1.80;;;9.80;99.90;;;;;;4992723;28;20659;-59
2023/05/16 03:45:16;;;;;;;15.63;2.30;;;9.80;99.90;;;;;;4993039;28;20227;-59
2023/05/16 03:47:44;;;;;;;13.07;2.77;;;9.80;99.90;;;;;;4996206;28;20243;-59
2023/05/16 03:50:12;;;;;;;14.83;3.20;;;9.80;99.90;;;;;;4999161;28;20218;-58
2023/05/16 03:52:40;;;;;;;15.63;2.23;;;9.80;99.90;;;;;;4996370;28;20278;-59
2023/05/16 03:55:09;;;;;;;12.53;2.20;;;9.80;99.90;;;;;;4996522;28;20723;-59
2023/05/16 03:57:38;;;;;;;10.27;2.43;;;9.80;99.90;;;;;;4996061;28;20236;-58
2023/05/16 04:00:11;;;;;;;16.50;3.30;;;9.70;99.90;;;;;;4996239;28;20237;-59
2023/05/16 04:02:40;;;;;;;16.53;2.60;;;9.70;99.90;;;;;;4995370;28;20246;-59
2023/05/16 04:05:10;;;;;;;8.83;1.73;;;9.70;99.90;;;;;;4996302;28;20577;-59
2023/05/16 04:07:38;;;;;;;13.20;2.00;;;9.70;99.90;;;;;;4996192;28;20268;-59
2023/05/16 04:10:07;;;;;;;12.27;2.10;;;9.70;99.90;;;;;;4996092;28;20227;-59
2023/05/16 04:12:36;;;;;;;7.33;1.70;;;9.70;99.90;;;;;;4996083;28;20582;-58
2023/05/16 04:15:05;;;;;;;10.50;2.47;;;9.70;99.90;;;;;;4993904;28;20231;-59
2023/05/16 04:17:35;;;;;;;10.33;1.87;;;9.80;99.90;;;;;;4995710;28;20354;-59
2023/05/16 04:20:03;;;;;;;12.77;1.93;;;9.70;99.90;;;;;;4996573;28;20223;-59
2023/05/16 04:22:35;;;;;;;11.13;2.07;;;9.80;99.90;;;;;;4995842;28;20589;-59
2023/05/16 04:25:03;;;;;;;9.37;1.83;;;9.90;99.90;;;;;;4995839;28;20229;-58
2023/05/16 04:27:31;;;;;;;8.70;2.00;;;9.90;99.90;;;;;;4995788;28;20235;-59
2023/05/16 04:30:00;;;;;;;12.13;1.80;;;9.90;99.90;;;;;;4995719;28;20705;-59
2023/05/16 04:32:29;;;;;;;10.00;1.83;;;10.00;99.90;;;;;;4995086;28;20288;-59
2023/05/16 04:34:58;;;;;;;12.33;2.37;;;10.00;99.90;;;;;;4993804;28;20325;-59
2023/05/16 04:37:27;;;;;;;9.87;2.07;;;10.20;99.90;;;;;;4995023;28;20242;-58
2023/05/16 04:39:55;;;;;;;11.57;2.20;;;10.20;99.90;;;;;;4995723;28;20623;-58
2023/05/16 04:42:23;;;;;;;9.67;1.53;;;10.30;99.90;;;;;;4995412;28;20235;-58
2023/05/16 04:44:51;;;;;;;11.50;2.07;;;10.30;99.90;;;;;;4995374;28;20245;-58
2023/05/16 04:47:19;;;;;;;8.90;2.00;;;10.40;99.90;;;;;;4995648;28;20212;-59
2023/05/16 04:49:47;;;;;;;8.83;1.77;;;10.40;99.90;;;;;;4995415;28;20637;-59
2023/05/16 04:52:17;;;;;;;10.90;1.73;;;10.50;99.90;;;;;;4995158;28;20228;-59
2023/05/16 04:54:45;;;;;;;9.77;2.10;;;10.50;99.90;;;;;;4998743;28;20237;-59
2023/05/16 04:57:13;;;;;;;9.73;1.97;;;10.50;99.90;;;;;;5006218;28;20227;-58
2023/05/16 04:59:41;;;;;;;12.10;2.00;;;10.50;99.90;;;;;;4994584;28;20243;-59
2023/05/16 05:02:10;;;;;;;10.67;2.00;;;10.60;99.90;;;;;;4982888;28;20993;-59
2023/05/16 05:04:38;;;;;;;8.53;1.70;;;10.70;99.90;;;;;;4993329;28;20321;-57
2023/05/16 05:07:07;;;;;;;11.20;2.10;;;10.70;99.90;;;;;;4979448;28;20229;-54
2023/05/16 05:09:36;;;;;;;10.73;1.93;;;10.70;99.90;;;;;;4971444;28;20975;-56
2023/05/16 05:12:06;;;;;;;12.63;1.90;;;10.90;99.90;;;;;;4975001;28;20256;-57
2023/05/16 05:14:34;;;;;;;11.37;2.03;;;11.10;99.90;;;;;;4974693;28;20328;-58
2023/05/16 05:17:02;;;;;;;9.87;2.23;;;11.10;99.90;;;;;;4975679;28;20693;-55
2023/05/16 05:19:30;;;;;;;12.07;2.50;;;11.10;99.90;;;;;;4974561;28;20228;-56
2023/05/16 05:21:59;;;;;;;6.33;1.60;;;11.10;99.90;;;;;;4973679;28;20330;-54
2023/05/16 05:24:27;;;;;;;11.37;2.00;;;11.20;99.90;;;;;;4974604;28;20232;-54
2023/05/16 05:26:56;;;;;;;8.77;1.87;;;11.20;99.90;;;;;;4984731;28;20235;-55
2023/05/16 05:29:25;;;;;;;8.33;1.67;;;11.10;99.90;;;;;;4987427;28;20824;-58
2023/05/16 05:31:53;;;;;;;8.40;1.60;;;11.10;99.90;;;;;;4983587;28;20290;-51
2023/05/16 05:34:21;;;;;;;8.00;1.90;;;11.10;99.90;;;;;;4988382;28;20242;-56
2023/05/16 05:36:49;;;;;;;13.37;2.03;;;11.10;99.90;;;;;;4986281;28;20258;-59
2023/05/16 05:39:17;;;;;;;10.50;2.07;;;11.20;99.90;;;;;;4976602;28;20708;-59
2023/05/16 05:41:45;;;;;;;15.67;2.20;;;11.30;99.90;;;;;;4973027;28;20244;-53
2023/05/16 05:44:14;;;;;;;11.40;1.87;;;11.40;99.90;;;;;;4977579;28;20236;-59
2023/05/16 05:46:43;;;;;;;12.57;2.10;;;11.60;99.90;;;;;;4979068;28;20235;-59
2023/05/16 05:49:11;;;;;;;8.80;2.03;;;11.80;99.90;;;;;;4975440;28;20235;-58
2023/05/16 05:51:40;;;;;;;10.23;1.90;;;12.20;99.90;;;;;;4973497;28;20704;-59
2023/05/16 05:54:08;;;;;;;17.57;2.43;;;12.30;99.90;;;;;;4974667;28;20565;-50
2023/05/16 05:56:36;;;;;;;10.50;2.07;;;12.40;99.90;;;;;;4972722;28;20231;-53
2023/05/16 05:59:04;;;;;;;9.17;2.00;;;12.30;99.90;;;;;;4977101;28;20236;-59
2023/05/16 06:01:34;;;;;;;7.47;1.90;;;12.50;99.90;;;;;;4972858;28;20694;-59
2023/05/16 06:04:02;;;;;;;10.33;2.20;;;12.60;99.90;;;;;;4976344;28;20271;-58
2023/05/16 06:06:30;;;;;;;9.97;1.93;;;12.60;99.90;;;;;;4979099;28;20248;-54
2023/05/16 06:08:58;;;;;;;8.13;1.93;;;12.60;99.90;;;;;;4979431;28;20246;-57
2023/05/16 06:11:26;;;;;;;7.20;1.37;;;12.70;99.90;;;;;;4980277;28;20251;-54
2023/05/16 06:13:54;;;;;;;10.93;1.83;;;12.90;99.90;;;;;;4980977;28;20245;-58
2023/05/16 06:16:25;;;;;;;11.17;2.07;;;13.00;99.90;;;;;;4978658;28;20323;-57
2023/05/16 06:18:54;;;;;;;9.17;1.67;;;13.00;99.90;;;;;;4980454;28;20225;-52
2023/05/16 06:21:23;;;;;;;7.57;1.63;;;13.10;99.90;;;;;;4980983;28;20320;-52
2023/05/16 06:23:51;;;;;;;6.07;1.40;;;12.90;99.90;;;;;;4979740;28;20236;-58
2023/05/16 06:26:19;;;;;;;6.97;1.50;;;12.90;99.90;;;;;;4978705;28;20726;-58
2023/05/16 06:28:47;;;;;;;6.23;1.93;;;13.00;99.90;;;;;;4979206;28;20229;-56
2023/05/16 06:31:15;;;;;;;7.10;1.43;;;13.20;99.90;;;;;;4980817;28;20609;-56
2023/05/16 06:33:43;;;;;;;10.30;1.80;;;13.60;99.90;;;;;;4979069;28;20649;-59
2023/05/16 06:36:12;;;;;;;9.20;1.50;;;13.60;99.90;;;;;;4980133;28;20229;-59
2023/05/16 06:38:40;;;;;;;8.60;1.67;;;13.50;99.90;;;;;;4982540;28;20592;-57
2023/05/16 06:41:08;;;;;;;10.93;1.80;;;13.50;99.90;;;;;;4978903;28;20229;-57
2023/05/16 06:43:36;;;;;;;7.03;1.50;;;13.60;99.90;;;;;;4980227;28;20240;-53
2023/05/16 06:46:05;;;;;;;6.37;2.17;;;13.60;99.90;;;;;;4974200;28;20237;-59
2023/05/16 06:48:33;;;;;;;6.27;1.87;;;13.60;99.90;;;;;;4980504;28;20229;-57
2023/05/16 06:51:01;;;;;;;14.47;2.03;;;13.30;99.90;;;;;;4981877;28;20235;-58
2023/05/16 06:53:30;;;;;;;7.90;1.53;;;13.50;99.90;;;;;;4978679;28;20319;-54
2023/05/16 06:55:58;;;;;;;6.17;1.40;;;13.60;99.90;;;;;;4977543;28;20264;-58
2023/05/16 06:58:27;;;;;;;5.23;1.20;;;13.50;99.90;;;;;;4977563;28;20248;-56
2023/05/16 07:00:55;;;;;;;6.97;1.40;;;13.40;99.90;;;;;;4976526;28;20363;-52
2023/05/16 07:03:23;;;;;;;10.13;2.33;;;13.60;99.90;;;;;;4978571;28;20249;-57
2023/05/16 07:05:51;;;;;;;10.40;2.27;;;13.70;99.90;;;;;;4976596;28;20786;-58
2023/05/16 07:08:19;;;;;;;9.40;1.87;;;13.40;99.90;;;;;;4979432;28;20300;-58
2023/05/16 07:10:49;;;;;;;8.83;1.70;;;13.20;99.90;;;;;;4982567;28;21200;-52
2023/05/16 07:13:17;;;;;;;9.47;1.73;;;12.90;99.90;;;;;;4985436;28;20244;-57
2023/05/16 07:15:45;;;;;;;11.63;1.87;;;12.70;99.90;;;;;;4983414;28;20303;-53
2023/05/16 07:18:13;;;;;;;8.63;2.00;;;12.70;99.90;;;;;;4985459;28;20243;-58
2023/05/16 07:20:42;;;;;;;5.70;1.50;;;12.80;99.90;;;;;;4987859;28;20236;-58
2023/05/16 07:23:10;;;;;;;5.67;1.40;;;13.20;99.90;;;;;;4989537;28;20264;-58
2023/05/16 07:25:38;;;;;;;8.17;1.80;;;13.30;99.90;;;;;;4987672;28;20264;-57
2023/05/16 07:28:08;;;;;;;8.97;1.53;;;13.70;99.90;;;;;;4988589;28;20228;-58
2023/05/16 07:30:36;;;;;;;5.37;1.67;;;13.80;99.90;;;;;;4986776;28;21345;-54
2023/05/16 07:33:04;;;;;;;9.17;1.43;;;14.40;99.90;;;;;;4987326;28;20249;-56
2023/05/16 07:35:32;;;;;;;6.30;1.67;;;14.20;99.90;;;;;;4983068;28;20248;-53
2023/05/16 07:38:01;;;;;;;10.67;2.07;;;14.20;99.90;;;;;;4981721;28;20628;-54
2023/05/16 07:40:29;;;;;;;10.03;1.80;;;14.10;99.90;;;;;;4980978;28;20356;-55
2023/05/16 07:42:58;;;;;;;8.47;1.63;;;13.70;99.90;;;;;;4978484;28;20794;-56
2023/05/16 07:45:27;;;;;;;6.30;1.60;;;13.30;99.90;;;;;;4975014;28;20367;-56
2023/05/16 07:47:56;;;;;;;5.23;1.20;;;13.10;99.90;;;;;;4974837;28;20592;-57
2023/05/16 07:50:25;;;;;;;6.67;1.57;;;12.90;99.90;;;;;;4977490;28;20234;-57
2023/05/16 07:52:53;;;;;;;7.40;1.97;;;13.40;99.90;;;;;;4987051;28;20237;-56
2023/05/16 07:55:22;;;;;;;5.17;1.60;;;13.80;99.90;;;;;;4984589;28;20233;-58
2023/05/16 07:57:50;;;;;;;9.50;2.00;;;14.10;99.90;;;;;;4980635;28;20240;-59
2023/05/16 08:00:20;;;;;;;6.87;1.60;;;14.10;99.90;;;;;;4975052;28;20375;-59
2023/05/16 08:02:49;;;;;;;5.10;1.30;;;14.30;99.90;;;;;;4973568;28;20277;-58
2023/05/16 08:05:18;;;;;;;5.07;1.20;;;14.50;99.90;;;;;;4973009;28;20229;-57
2023/05/16 08:07:46;;;;;;;10.77;1.50;;;14.50;99.90;;;;;;4969995;28;20794;-51
2023/05/16 08:10:14;;;;;;;5.03;1.30;;;15.10;99.90;;;;;;4974278;28;20293;-50
2023/05/16 08:12:43;;;;;;;8.33;1.53;;;15.10;99.90;;;;;;4975115;28;20734;-59
2023/05/16 08:15:11;;;;;;;3.83;1.40;;;15.00;99.90;;;;;;4973464;28;20229;-51
2023/05/16 08:17:40;;;;;;;4.67;1.33;;;14.60;99.90;;;;;;4976703;28;20892;-56
2023/05/16 08:20:11;;;;;;;8.13;1.80;;;14.30;99.90;;;;;;4974960;28;20234;-55
2023/05/16 08:22:39;;;;;;;6.83;1.70;;;15.00;99.90;;;;;;4973209;28;20364;-55
2023/05/16 08:25:08;;;;;;;9.53;1.67;;;15.60;99.90;;;;;;4974402;28;20709;-54
2023/05/16 08:27:36;;;;;;;9.27;1.97;;;16.20;99.90;;;;;;4978203;28;20240;-56
2023/05/16 08:30:05;;;;;;;9.23;1.73;;;16.20;99.90;;;;;;4987512;28;20268;-54
2023/05/16 08:32:33;;;;;;;3.77;1.30;;;16.30;99.90;;;;;;4986071;28;20233;-56
2023/05/16 08:35:01;;;;;;;7.17;1.50;;;15.50;99.90;;;;;;4987403;28;20225;-58
2023/05/16 08:37:31;;;;;;;6.20;1.27;;;14.80;99.90;;;;;;4985122;28;20230;-53
2023/05/16 08:39:59;;;;;;;6.50;1.30;;;14.40;99.90;;;;;;4988122;28;20592;-59
2023/05/16 08:42:27;;;;;;;6.33;1.53;;;14.70;99.90;;;;;;4986162;28;20264;-58
2023/05/16 08:44:55;;;;;;;3.87;1.17;;;15.10;99.90;;;;;;4986797;28;20592;-56
2023/05/16 08:47:26;;;;;;;4.30;1.37;;;15.50;99.90;;;;;;4977242;28;20761;-51
2023/05/16 08:49:57;;;;;;;6.27;1.40;;;15.90;99.90;;;;;;4980587;28;20244;-57
2023/05/16 08:52:28;;;;;;;8.97;1.40;;;16.10;99.90;;;;;;4978422;28;20242;-50
2023/05/16 08:55:03;;;;;;;5.90;1.07;;;15.70;99.90;;;;;;4980010;28;20312;-57
2023/05/16 08:57:39;;;;;;;7.47;1.10;;;15.40;99.90;;;;;;4981332;28;20237;-51
2023/05/16 09:00:11;;;;;;;7.83;1.27;;;15.30;99.90;;;;;;4981140;28;20230;-55
2023/05/16 09:02:40;;;;;;;6.80;1.50;;;15.40;99.90;;;;;;4979622;28;20256;-57
2023/05/16 09:05:11;;;;;;;7.23;1.80;;;15.20;99.90;;;;;;4979301;28;20230;-57
2023/05/16 09:07:39;;;;;;;6.97;1.30;;;15.00;99.90;;;;;;4985101;28;20232;-54
2023/05/16 09:10:10;;;;;;;7.03;1.50;;;14.90;99.90;;;;;;4986315;28;20230;-58
2023/05/16 09:12:40;;;;;;;7.23;1.30;;;14.60;99.90;;;;;;4985565;28;20728;-53
2023/05/16 09:15:10;;;;;;;5.70;1.60;;;13.90;99.90;;;;;;4985115;28;20593;-53
2023/05/16 09:17:39;;;;;;;7.10;1.40;;;13.40;99.90;;;;;;4985461;28;20244;-53
2023/05/16 09:20:12;;;;;;;6.37;1.50;;;13.80;99.90;;;;;;4986234;28;20678;-59
2023/05/16 09:22:51;;;;;;;6.63;1.40;;;14.60;99.90;;;;;;4986251;28;20587;-60
2023/05/16 09:25:23;;;;;;;6.00;1.10;;;15.10;99.90;;;;;;4982419;28;20238;-48
2023/05/16 09:27:54;;;;;;;5.80;1.60;;;15.70;99.90;;;;;;4978130;28;20489;-49
2023/05/16 09:30:27;;;;;;;6.20;1.70;;;15.80;99.90;;;;;;4979163;28;20321;-48
2023/05/16 09:32:55;;;;;;;4.47;1.33;;;15.70;99.90;;;;;;4981874;28;20591;-49
2023/05/16 09:35:23;;;;;;;8.07;2.03;;;15.10;99.90;;;;;;4979344;28;20788;-49
2023/05/16 09:38:14;;;;;;;6.73;1.80;;;14.40;99.90;;;;;;4979293;28;20612;-46
2023/05/16 09:40:45;;;;;;;8.40;1.70;;;13.90;99.90;;;;;;4980398;28;20711;-50
2023/05/16 09:43:16;;;;;;;7.10;1.40;;;14.70;99.90;;;;;;4979694;28;20237;-49
2023/05/16 09:45:47;;;;;;;7.40;1.80;;;15.60;99.90;;;;;;4978742;28;20230;-49
2023/05/16 09:48:16;;;;;;;7.90;1.80;;;16.30;99.90;;;;;;4980339;28;21969;-49
2023/05/16 09:50:51;;;;;;;9.73;2.07;;;16.50;99.90;;;;;;4979321;28;21159;-49
2023/05/16 09:53:27;;;;;;;9.20;1.90;;;16.10;99.90;;;;;;4978535;28;20701;-51
2023/05/16 09:56:06;;;;;;;5.93;1.67;;;15.30;99.90;;;;;;4977522;28;20306;-48
2023/05/16 09:58:36;;;;;;;9.97;1.80;;;14.70;99.90;;;;;;4978400;28;20276;-48
2023/05/16 10:01:05;;;;;;;6.40;1.70;;;14.70;99.90;;;;;;4978213;28;20242;-49
2023/05/16 10:03:36;;;;;;;5.07;1.53;;;15.70;99.90;;;;;;4978837;28;20241;-51
2023/05/16 10:06:06;;;;;;;7.03;1.80;;;16.30;99.90;;;;;;4978516;28;20781;-49
2023/05/16 10:08:36;;;;;;;5.00;1.50;;;16.50;99.90;;;;;;4975137;28;20241;-49
2023/05/16 10:11:06;;;;;;;8.53;1.60;;;16.70;99.90;;;;;;4978205;28;20237;-49
2023/05/16 10:13:36;;;;;;;6.43;1.80;;;17.50;99.90;;;;;;4978658;28;20253;-49
2023/05/16 10:16:07;;;;;;;5.23;1.30;;;17.30;99.90;;;;;;4977754;28;20280;-48
2023/05/16 10:18:38;;;;;;;6.97;1.43;;;16.60;99.90;;;;;;4982376;28;20273;-51
2023/05/16 10:21:10;;;;;;;7.03;1.70;;;17.30;99.90;;;;;;4980016;28;20577;-51
2023/05/16 10:23:42;;;;;;;7.13;1.80;;;18.10;99.90;;;;;;4979079;28;20225;-50
2023/05/16 10:26:13;;;;;;;8.47;1.90;;;18.00;99.90;;;;;;4975774;28;20230;-51
2023/05/16 10:28:42;;;;;;;8.73;1.60;;;17.50;99.90;;;;;;4977974;28;20236;-51
2023/05/16 10:31:11;;;;;;;7.70;1.43;;;16.20;99.90;;;;;;4977917;28;20731;-48
2023/05/16 10:33:39;;;;;;;4.20;1.27;;;15.50;99.90;;;;;;4979530;28;20596;-49
2023/05/16 10:36:09;;;;;;;4.60;1.13;;;15.00;99.90;;;;;;4977044;28;20225;-51
2023/05/16 10:38:38;;;;;;;4.50;1.33;;;14.30;99.90;;;;;;4976981;28;20276;-50
2023/05/16 10:41:07;;;;;;;4.60;1.17;;;13.90;99.90;;;;;;4979543;28;20225;-50
2023/05/16 10:43:37;;;;;;;6.03;1.37;;;14.00;99.90;;;;;;4977504;28;20314;-48
2023/05/16 10:46:08;;;;;;;3.63;1.30;;;14.60;99.90;;;;;;4978333;28;20938;-49
2023/05/16 10:48:38;;;;;;;7.60;1.50;;;15.10;99.90;;;;;;4979419;28;20324;-49
2023/05/16 10:51:36;;;;;;;7.97;1.50;;;14.70;99.90;;;;;;4978366;28;20718;-48
2023/05/16 10:54:11;;;;;;;8.07;1.87;;;14.30;99.90;;;;;;4978072;28;20605;-49
2023/05/16 10:56:39;;;;;;;14.43;2.10;;;13.70;99.90;;;;;;4978517;28;20224;-49
2023/05/16 11:02:01;;;;;;;7.67;1.77;;;13.90;99.90;;;;;;5103285;27;21168;-45
2023/05/16 11:04:48;;;;;;;6.90;1.60;;;15.10;99.90;;;;;;5096094;28;20712;-46
2023/05/16 11:07:18;;;;;;;7.60;1.50;;;15.60;99.90;;;;;;5093170;28;20296;-44
2023/05/16 11:09:52;;;;;;;4.97;1.23;;;15.40;99.90;;;;;;5096295;28;20664;-46
2023/05/16 11:12:21;;;;;;;6.40;1.50;;;14.60;99.90;;;;;;5096083;28;20251;-47
2023/05/16 11:14:51;;;;;;;5.83;1.30;;;14.10;99.90;;;;;;5096190;28;20230;-48
2023/05/16 11:17:23;;;;;;;5.97;1.63;;;14.10;99.90;;;;;;5095411;28;20750;-46
2023/05/16 11:19:57;;;;;;;5.17;1.30;;;14.40;99.90;;;;;;5098386;28;20320;-47
2023/05/16 11:22:28;;;;;;;5.30;1.30;;;15.00;99.90;;;;;;5098157;28;20729;-48
2023/05/16 11:24:59;;;;;;;6.10;1.50;;;15.00;99.90;;;;;;5097293;28;20230;-48
2023/05/16 11:27:29;;;;;;;5.00;1.43;;;14.80;99.90;;;;;;5093305;28;20229;-46
2023/05/16 11:30:11;;;;;;;4.83;0.90;;;14.10;99.90;;;;;;5095291;28;20225;-46
2023/05/16 11:32:42;;;;;;;3.43;1.23;;;13.80;99.90;;;;;;5094926;28;20242;-47
2023/05/16 11:35:13;;;;;;;5.40;1.40;;;13.80;99.90;;;;;;5094953;28;20271;-46
2023/05/16 11:37:42;;;;;;;5.10;1.40;;;13.70;99.90;;;;;;5096126;28;20247;-47
2023/05/16 11:40:12;;;;;;;3.40;1.00;;;13.50;99.90;;;;;;5095865;28;20261;-46
2023/05/16 11:42:43;;;;;;;3.17;1.00;;;13.20;99.90;;;;;;5098181;28;20240;-46
2023/05/16 11:45:12;;;;;;;3.43;1.30;;;13.10;99.90;;;;;;5096709;28;20716;-49
2023/05/16 11:47:44;;;;;;;4.03;1.13;;;13.20;99.90;;;;;;5098940;28;20763;-45
2023/05/16 11:50:14;;;;;;;5.27;1.00;;;13.30;99.90;;;;;;5096118;28;20605;-45
2023/05/16 11:52:44;;;;;;;4.20;1.00;;;13.50;99.90;;;;;;5095924;28;20234;-45
2023/05/16 11:55:13;;;;;;;4.10;1.10;;;13.80;99.90;;;;;;5094011;28;20226;-46
2023/05/16 11:57:57;;;;;;;4.07;1.13;;;14.20;99.90;;;;;;5094016;27;20232;-46
2023/05/16 12:00:26;;;;;;;8.87;2.33;;;14.10;99.90;;;;;;5095285;22;20317;-56
2023/05/16 12:03:03;;;;;;;4.37;1.60;;;14.00;99.90;;;;;;5033141;28;20285;-56
2023/05/16 12:05:31;;;;;;;4.30;1.10;;;14.00;99.90;;;;;;5032349;28;20320;-57
2023/05/16 12:08:03;;;;;;;4.47;1.40;;;14.40;99.90;;;;;;5029743;28;20625;-54
2023/05/16 12:10:32;;;;;;;4.70;1.40;;;15.00;99.90;;;;;;5032233;28;20315;-56
2023/05/16 12:13:02;;;;;;;4.33;1.10;;;15.00;99.90;;;;;;5021119;28;20324;-55
2023/05/16 12:15:31;;;;;;;6.13;1.13;;;15.10;99.90;;;;;;5017282;28;20741;-56
2023/05/16 12:18:01;;;;;;;5.10;1.30;;;15.40;99.90;;;;;;5018835;28;20699;-57
2023/05/16 12:20:29;;;;;;;7.87;1.67;;;15.80;99.90;;;;;;5019764;28;20641;-56
2023/05/16 12:22:58;;;;;;;7.50;1.50;;;15.80;99.90;;;;;;5018721;28;20235;-56
2023/05/16 12:25:29;;;;;;;4.73;1.50;;;15.90;99.90;;;;;;5017728;28;20327;-56
2023/05/16 12:27:59;;;;;;;8.47;1.57;;;15.60;99.90;;;;;;5018482;28;20702;-56
2023/05/16 12:30:28;;;;;;;4.17;1.20;;;15.50;99.90;;;;;;5019227;28;20649;-56
2023/05/16 12:32:57;;;;;;;7.57;1.90;;;15.60;99.90;;;;;;5020519;28;20231;-55
2023/05/16 12:35:30;;;;;;;7.67;2.07;;;15.50;99.90;;;;;;5020911;28;20695;-56
2023/05/16 12:37:59;;;;;;;6.63;1.43;;;15.30;99.90;;;;;;5022210;28;20323;-55
2023/05/16 12:40:28;;;;;;;7.03;1.70;;;15.00;99.90;;;;;;5021394;28;21346;-56
2023/05/16 12:42:57;;;;;;;3.93;1.10;;;14.80;99.90;;;;;;5021587;28;20236;-57
2023/05/16 12:45:27;;;;;;;3.70;1.20;;;14.40;99.90;;;;;;5020497;28;21162;-56
2023/05/16 12:47:55;;;;;;;3.47;1.10;;;14.20;99.90;;;;;;5021395;28;20256;-56
2023/05/16 12:50:28;;;;;;;3.93;0.83;;;14.10;99.90;;;;;;5022047;28;20263;-57
2023/05/16 12:53:00;;;;;;;2.27;0.70;;;14.10;99.90;;;;;;5022021;28;20239;-56
2023/05/16 12:55:28;;;;;;;4.10;0.80;;;14.10;99.90;;;;;;5020956;28;21237;-54
2023/05/16 12:57:57;;;;;;;5.23;1.23;;;14.00;99.90;;;;;;5021751;28;20228;-56
2023/05/16 13:00:25;;;;;;;6.40;1.50;;;14.00;99.90;;;;;;5019216;28;20703;-55
2023/05/16 13:02:54;;;;;;;5.30;1.30;;;13.80;99.90;;;;;;5018948;28;20232;-57